createdAt,value
2019-04-03T00:00:34.512Z,18.20
2019-04-03T00:05:38.167Z,18.27
2019-04-03T00:10:41.386Z,17.60
2019-04-03T00:15:45.276Z,19.23
2019-04-03T00:20:49.277Z,15.87
2019-04-03T00:25:52.756Z,16.63
2019-04-03T00:30:57.547Z,18.03
2019-04-03T00:36:01.625Z,17.40
2019-04-03T00:41:05.174Z,17.20
2019-04-03T00:46:08.687Z,17.53
2019-04-03T00:51:11.566Z,17.90
2019-04-03T00:56:15.236Z,18.63
2019-04-03T01:01:18.766Z,18.40
2019-04-03T01:06:22.641Z,19.93
2019-04-03T01:11:30.146Z,17.27
2019-04-03T01:16:33.019Z,19.33
2019-04-03T01:21:37.651Z,18.50
2019-04-03T01:26:41.256Z,18.80
2019-04-03T01:31:44.771Z,20.90
2019-04-03T01:36:48.713Z,20.00
2019-04-03T01:41:52.090Z,20.90
2019-04-03T01:46:57.341Z,20.10
2019-04-03T01:52:00.994Z,20.73
2019-04-03T01:57:05.987Z,21.80
2019-04-03T02:02:09.427Z,20.67
2019-04-03T02:07:14.896Z,21.43
2019-04-03T02:12:19.790Z,20.80
2019-04-03T02:17:24.055Z,21.87
2019-04-03T02:22:29.316Z,20.00
2019-04-03T02:27:33.308Z,21.70
2019-04-03T02:32:37.260Z,21.20
2019-04-03T02:37:40.759Z,21.60
2019-04-03T02:42:44.003Z,22.43
2019-04-03T02:47:47.180Z,23.03
2019-04-03T02:52:51.145Z,23.83
2019-04-03T02:57:54.371Z,23.63
2019-04-03T03:02:57.069Z,24.57
2019-04-03T03:08:00.878Z,23.60
2019-04-03T03:13:03.850Z,24.00
2019-04-03T03:18:07.358Z,24.60
2019-04-03T03:23:11.626Z,23.93
2019-04-03T03:28:15.621Z,23.77
2019-04-03T03:33:32.729Z,27.27
2019-04-03T03:38:27.510Z,25.70
2019-04-03T03:43:30.157Z,26.70
2019-04-03T03:48:33.360Z,26.93
2019-04-03T03:53:37.922Z,25.20
2019-04-03T03:58:44.794Z,29.37
2019-04-03T04:03:46.820Z,28.13
2019-04-03T04:08:51.065Z,26.90
2019-04-03T04:13:54.710Z,27.37
2019-04-03T04:18:58.307Z,27.97
2019-04-03T04:24:02.577Z,27.67
2019-04-03T04:29:10.308Z,25.50
2019-04-03T04:34:12.281Z,27.27
2019-04-03T04:39:15.529Z,28.93
2019-04-03T04:44:18.750Z,28.07
2019-04-03T04:49:22.670Z,27.70
2019-04-03T04:54:26.184Z,27.07
2019-04-03T04:59:29.357Z,25.40
2019-04-03T05:04:32.839Z,27.00
2019-04-03T05:09:36.326Z,26.50
2019-04-03T05:14:39.324Z,26.50
2019-04-03T05:19:42.489Z,27.97
2019-04-03T05:24:45.973Z,24.20
2019-04-03T05:29:48.975Z,26.50
2019-04-03T05:34:52.462Z,26.30
2019-04-03T05:39:56.108Z,26.30
2019-04-03T05:44:59.582Z,25.00
2019-04-03T05:50:02.875Z,17.90
2019-04-03T05:55:06.014Z,14.77
2019-04-03T06:00:08.754Z,20.20
2019-04-03T06:05:13.171Z,21.20
2019-04-03T06:10:16.678Z,20.30
2019-04-03T06:15:21.688Z,28.00
2019-04-03T06:20:25.475Z,24.20
2019-04-03T06:25:30.037Z,26.37
2019-04-03T06:30:33.542Z,86.20
2019-04-03T06:35:37.149Z,106.27
2019-04-03T06:40:40.355Z,27.97
2019-04-03T06:45:44.530Z,25.07
2019-04-03T06:50:47.036Z,26.43
2019-04-03T06:55:50.221Z,26.37
2019-04-03T07:00:54.766Z,26.33
2019-04-03T07:05:58.556Z,26.50
2019-04-03T07:11:01.057Z,24.37
2019-04-03T07:16:03.900Z,26.10
2019-04-03T07:21:06.740Z,26.40
2019-04-03T07:26:10.548Z,26.17
2019-04-03T07:31:14.351Z,27.20
2019-04-03T07:36:17.856Z,26.43
2019-04-03T07:41:23.290Z,26.00
2019-04-03T07:46:25.789Z,27.00
2019-04-03T07:51:28.612Z,26.77
2019-04-03T07:56:31.492Z,26.10
2019-04-03T08:01:34.760Z,25.43
2019-04-03T08:06:37.390Z,26.07
2019-04-03T08:11:41.040Z,27.93
2019-04-03T08:16:47.480Z,30.07
2019-04-03T08:21:49.363Z,29.30
2019-04-03T08:26:52.730Z,27.60
2019-04-03T08:31:55.838Z,24.90
2019-04-03T08:37:01.386Z,26.70
2019-04-03T08:42:04.582Z,24.87
2019-04-03T08:47:07.935Z,24.67
2019-04-03T08:52:13.882Z,24.30
2019-04-03T08:57:19.998Z,23.80
2019-04-03T09:02:21.579Z,22.97
2019-04-03T09:07:25.545Z,23.47
2019-04-03T09:12:28.951Z,25.03
2019-04-03T09:17:34.124Z,23.90
2019-04-03T09:22:37.913Z,24.70
2019-04-03T09:27:41.395Z,24.87
2019-04-03T09:32:44.307Z,26.77
2019-04-03T09:37:47.859Z,22.53
2019-04-03T09:42:51.588Z,24.87
2019-04-03T09:47:55.709Z,26.00
2019-04-03T09:53:01.641Z,24.00
2019-04-03T09:58:04.296Z,24.10
2019-04-03T10:03:07.615Z,24.13
2019-04-03T10:08:10.885Z,21.13
2019-04-03T10:13:13.813Z,22.07
2019-04-03T10:18:17.430Z,24.83
2019-04-03T10:23:20.074Z,24.17
2019-04-03T10:28:23.187Z,25.47
2019-04-03T10:33:26.505Z,28.70
2019-04-03T10:38:29.465Z,28.63
2019-04-03T10:43:32.747Z,31.30
2019-04-03T10:48:35.803Z,32.70
2019-04-03T10:53:39.896Z,31.40
2019-04-03T10:58:43.808Z,30.10
2019-04-03T11:03:47.165Z,30.27
2019-04-03T11:08:50.183Z,29.60
2019-04-03T11:13:53.480Z,27.30
2019-04-03T11:19:00.014Z,25.33
2019-04-03T11:24:01.335Z,25.67
2019-04-03T11:29:05.099Z,24.13
2019-04-03T11:34:08.622Z,26.07
2019-04-03T11:39:15.152Z,23.10
2019-04-03T11:44:15.907Z,23.93
2019-04-03T11:49:19.993Z,25.13
2019-04-03T11:54:24.322Z,25.50
2019-04-03T11:59:27.568Z,26.40
2019-04-03T12:04:30.710Z,26.30
2019-04-03T12:09:33.880Z,27.43
2019-04-03T12:14:37.464Z,23.70
2019-04-03T12:19:40.627Z,22.47
2019-04-03T12:24:44.059Z,23.67
2019-04-03T12:29:47.049Z,22.80
2019-04-03T12:34:50.962Z,21.77
2019-04-03T12:39:53.503Z,24.90
2019-04-03T12:44:56.687Z,24.03
2019-04-03T12:50:00.198Z,21.73
2019-04-03T12:55:04.234Z,23.83
2019-04-03T13:00:12.768Z,24.07
2019-04-03T13:05:16.751Z,23.43
2019-04-03T13:10:21.269Z,23.37
2019-04-03T13:15:24.864Z,23.10
2019-04-03T13:20:28.020Z,22.67
2019-04-03T13:25:31.413Z,22.70
2019-04-03T13:30:34.789Z,24.73
2019-04-03T13:35:38.307Z,25.50
2019-04-03T13:40:40.795Z,25.73
2019-04-03T13:45:43.614Z,26.67
2019-04-03T13:50:46.727Z,26.33
2019-04-03T13:55:49.985Z,23.90
2019-04-03T14:01:00.914Z,24.20
2019-04-03T14:05:58.274Z,26.57
2019-04-03T14:11:02.717Z,29.67
2019-04-03T14:16:18.975Z,25.90
2019-04-03T14:21:11.135Z,27.17
2019-04-03T14:26:14.698Z,26.57
2019-04-03T14:31:19.077Z,26.10
2019-04-03T14:36:22.456Z,28.00
2019-04-03T14:41:26.352Z,28.47
2019-04-03T14:46:29.342Z,25.73
2019-04-03T14:51:32.709Z,27.63
2019-04-03T14:56:36.039Z,29.70
2019-04-03T15:01:39.734Z,26.67
2019-04-03T15:06:44.217Z,28.30
2019-04-03T15:11:48.198Z,28.53
2019-04-03T15:16:51.107Z,28.93
2019-04-03T15:21:56.690Z,26.37
2019-04-03T15:26:59.067Z,27.07
2019-04-03T15:32:02.265Z,25.53
2019-04-03T15:37:07.523Z,28.27
2019-04-03T15:42:11.062Z,25.00
2019-04-03T15:47:20.495Z,24.20
2019-04-03T15:52:20.668Z,25.40
2019-04-03T15:57:24.564Z,25.13
2019-04-03T16:02:29.092Z,27.67
2019-04-03T16:07:33.556Z,24.57
2019-04-03T16:12:41.489Z,25.90
2019-04-03T16:17:43.201Z,22.17
2019-04-03T16:22:47.075Z,27.23
2019-04-03T16:27:50.966Z,26.60
2019-04-03T16:32:57.042Z,26.07
2019-04-03T16:38:00.284Z,30.90
2019-04-03T16:43:10.369Z,32.47
2019-04-03T16:48:15.910Z,28.10
2019-04-03T16:53:20.433Z,29.07
2019-04-03T16:58:26.458Z,31.70
2019-04-03T17:03:33.244Z,30.70
2019-04-03T17:08:36.509Z,33.07
2019-04-03T17:13:41.091Z,31.00
2019-04-03T17:18:47.132Z,31.33
2019-04-03T17:23:52.401Z,29.00
2019-04-03T17:29:05.202Z,31.07
2019-04-03T17:34:08.394Z,29.27
2019-04-03T17:39:14.537Z,30.63
2019-04-03T17:44:22.184Z,32.20
2019-04-03T17:49:30.526Z,32.00
2019-04-03T17:54:34.013Z,32.00
2019-04-03T17:59:37.289Z,32.40
2019-04-03T18:04:40.532Z,31.77
2019-04-03T18:09:43.366Z,32.97
2019-04-03T18:14:52.160Z,33.77
2019-04-03T18:19:58.289Z,31.60
2019-04-03T18:25:02.114Z,31.77
2019-04-03T18:30:06.752Z,30.10
2019-04-03T18:35:10.972Z,31.90
2019-04-03T18:40:15.329Z,31.83
2019-04-03T18:45:29.971Z,32.90
2019-04-03T18:50:35.136Z,33.73
2019-04-03T18:55:40.262Z,33.63
2019-04-03T19:00:44.263Z,33.07
2019-04-03T19:05:47.732Z,34.43
2019-04-03T19:11:01.531Z,33.97
2019-04-03T19:15:58.323Z,32.63
2019-04-03T19:26:36.205Z,33.30
2019-04-03T19:31:40.784Z,34.80
2019-04-03T19:36:45.291Z,32.67
2019-04-03T19:41:49.121Z,34.90
2019-04-03T19:47:05.141Z,35.07
2019-04-03T19:52:11.617Z,35.83
2019-04-03T19:57:19.817Z,36.00
2019-04-03T20:02:23.513Z,36.80
2019-04-03T20:07:27.332Z,35.77
2019-04-03T20:12:29.979Z,37.60
2019-04-03T20:17:34.747Z,36.50
2019-04-03T20:22:42.462Z,35.67
2019-04-03T20:27:47.622Z,36.60
2019-04-03T20:32:52.435Z,39.60
2019-04-03T20:37:57.019Z,35.57
2019-04-03T20:43:01.311Z,38.77
2019-04-03T20:48:04.444Z,39.97
2019-04-03T20:53:07.478Z,38.63
2019-04-03T20:58:10.606Z,39.27
2019-04-03T21:03:13.589Z,40.90
2019-04-03T21:08:17.161Z,46.33
2019-04-03T21:13:20.446Z,39.73
2019-04-03T21:18:23.867Z,40.93
2019-04-03T21:23:27.529Z,45.10
2019-04-03T21:28:30.876Z,43.17
2019-04-03T21:33:33.995Z,42.37
2019-04-03T21:38:37.691Z,39.40
2019-04-03T21:43:40.857Z,41.90
2019-04-03T21:48:44.753Z,39.63
2019-04-03T21:53:48.608Z,41.87
2019-04-03T21:58:51.721Z,41.37
2019-04-03T22:03:55.193Z,41.70
2019-04-03T22:09:00.457Z,41.37
2019-04-03T22:14:04.365Z,42.13
2019-04-03T22:19:07.592Z,40.87
2019-04-03T22:24:11.156Z,43.10
2019-04-03T22:29:14.649Z,44.50
2019-04-03T22:34:17.262Z,44.50
2019-04-03T22:39:20.464Z,45.50
2019-04-03T22:44:23.877Z,46.40
2019-04-03T22:49:26.679Z,46.93
2019-04-03T22:54:30.024Z,44.60
2019-04-03T22:59:33.613Z,46.90
2019-04-03T23:04:36.622Z,45.00
2019-04-03T23:09:39.924Z,47.20
2019-04-03T23:14:43.441Z,47.13
2019-04-03T23:19:46.356Z,47.47
2019-04-03T23:24:49.885Z,43.97
2019-04-03T23:29:52.829Z,45.83
2019-04-03T23:34:56.381Z,49.63
2019-04-03T23:40:01.026Z,45.37
2019-04-03T23:45:05.694Z,43.90
2019-04-03T23:50:08.220Z,47.23
2019-04-03T23:55:11.499Z,45.30
